Granville, Illinois
Current Conditions -  °F | °C
As of 9:15 PM on Tuesday 21 Oct 2014 (Local Time) from KVYS Reporting Station
Scattered Clouds Scattered Clouds  
Wind Chill: 41°   Ceiling: Unl
Heat Index: 45°   Visibility: 10mi
Dew Point: 38°   Wind: 7mph
Humidity: 77%   Direction: 80°E
Pressure: 30.26"   Gusts: NA
Location:  41.26°N, 89.23°W
Report Text: KVYS 220215Z AUTO 08006KT 10SM SCT028 07/04 A3026 RMK AO2 T00720035
Loading
Personal Weather Stations






























Interactive Weather Map
Tropical Storm Tracking
New forecast layout! Learn more

10-Day Weather Forecast

Advertisements
Track Severe Weather on mobile